createdAt,value
2019-04-30T00:00:45.411Z,31.37
2019-04-30T00:03:27.607Z,40.90
2019-04-30T00:05:57.613Z,37.83
2019-04-30T00:08:30.211Z,33.55
2019-04-30T00:10:58.703Z,30.50
2019-04-30T00:13:28.270Z,32.48
2019-04-30T00:16:01.510Z,30.92
2019-04-30T00:18:30.664Z,31.68
2019-04-30T00:21:00.467Z,30.80
2019-04-30T00:23:30.911Z,30.40
2019-04-30T00:26:06.349Z,36.95
2019-04-30T00:28:31.870Z,31.17
2019-04-30T00:31:01.417Z,38.13
2019-04-30T00:33:31.058Z,34.25
2019-04-30T00:36:00.652Z,42.00
2019-04-30T00:38:34.261Z,38.17
2019-04-30T00:41:01.848Z,35.15
2019-04-30T00:43:32.827Z,39.08
2019-04-30T00:46:05.058Z,34.78
2019-04-30T00:48:35.706Z,36.50
2019-04-30T00:51:08.917Z,34.75
2019-04-30T00:53:36.679Z,30.12
2019-04-30T00:56:06.286Z,34.73
2019-04-30T00:58:35.903Z,31.15
2019-04-30T01:01:21.119Z,28.98
2019-04-30T01:03:56.055Z,28.67
2019-04-30T01:06:28.601Z,33.65
2019-04-30T01:08:58.304Z,25.85
2019-04-30T01:11:27.922Z,36.28
2019-04-30T01:13:59.052Z,29.87
2019-04-30T01:16:32.837Z,33.58
2019-04-30T01:19:01.140Z,35.45
2019-04-30T01:21:31.314Z,31.85
2019-04-30T01:24:01.124Z,29.42
2019-04-30T01:26:31.182Z,31.85
2019-04-30T01:29:03.394Z,34.35
2019-04-30T01:31:53.998Z,29.30
2019-04-30T01:34:23.649Z,27.25
2019-04-30T01:36:53.193Z,30.20
2019-04-30T01:39:23.781Z,32.78
2019-04-30T01:41:54.162Z,33.85
2019-04-30T01:44:23.654Z,29.55
2019-04-30T01:46:53.429Z,27.90
2019-04-30T01:49:25.755Z,31.42
2019-04-30T01:51:57.313Z,35.45
2019-04-30T01:54:25.555Z,32.98
2019-04-30T01:57:15.712Z,32.78
2019-04-30T02:00:03.292Z,26.73
2019-04-30T02:02:34.958Z,34.03
2019-04-30T02:05:05.302Z,36.88
2019-04-30T02:07:34.823Z,30.57
2019-04-30T02:10:04.375Z,33.10
2019-04-30T02:12:33.973Z,33.40
2019-04-30T02:15:03.514Z,30.15
2019-04-30T02:17:33.189Z,31.33
2019-04-30T02:20:02.779Z,32.70
2019-04-30T02:22:32.314Z,33.65
2019-04-30T02:25:01.814Z,38.88
2019-04-30T02:27:31.389Z,32.53
2019-04-30T02:30:02.688Z,33.92
2019-04-30T02:32:32.206Z,31.42
2019-04-30T02:35:11.296Z,36.08
2019-04-30T02:37:46.483Z,31.48
2019-04-30T02:40:16.069Z,30.30
2019-04-30T02:42:45.792Z,37.30
2019-04-30T02:45:15.422Z,34.15
2019-04-30T02:47:45.047Z,31.87
2019-04-30T02:50:18.647Z,33.60
2019-04-30T02:52:47.071Z,34.30
2019-04-30T02:55:20.265Z,33.98
2019-04-30T02:57:49.956Z,31.90
2019-04-30T03:00:20.772Z,40.28
2019-04-30T03:02:50.933Z,35.52
2019-04-30T03:05:20.567Z,34.80
2019-04-30T03:07:53.323Z,38.15
2019-04-30T03:10:21.343Z,34.08
2019-04-30T03:12:51.309Z,35.40
2019-04-30T03:15:22.806Z,34.53
2019-04-30T03:18:00.678Z,35.85
2019-04-30T03:20:51.285Z,35.23
2019-04-30T03:23:20.721Z,30.97
2019-04-30T03:25:50.328Z,34.48
2019-04-30T03:28:20.337Z,35.50
2019-04-30T03:30:51.905Z,32.23
2019-04-30T03:33:22.904Z,31.48
2019-04-30T03:35:54.264Z,28.85
2019-04-30T03:38:23.541Z,33.40
2019-04-30T03:40:53.086Z,31.70
2019-04-30T03:43:22.656Z,34.53
2019-04-30T03:45:52.159Z,36.33
2019-04-30T03:48:21.689Z,33.18
2019-04-30T03:50:56.646Z,33.18
2019-04-30T03:53:22.497Z,34.75
2019-04-30T03:55:51.952Z,39.75
2019-04-30T03:58:21.710Z,34.63
2019-04-30T04:01:11.510Z,30.12
2019-04-30T04:04:00.569Z,34.80
2019-04-30T04:06:36.292Z,33.63
2019-04-30T04:09:12.826Z,37.08
2019-04-30T04:11:43.739Z,31.00
2019-04-30T04:14:13.616Z,33.13
2019-04-30T04:16:43.160Z,36.05
2019-04-30T04:19:12.692Z,28.70
2019-04-30T04:21:42.249Z,34.83
2019-04-30T04:24:13.349Z,32.30
2019-04-30T04:26:43.819Z,31.77
2019-04-30T04:29:13.618Z,42.98
2019-04-30T04:31:44.148Z,35.58
2019-04-30T04:34:13.731Z,35.88
2019-04-30T04:37:02.386Z,40.35
2019-04-30T04:39:31.880Z,35.10
2019-04-30T04:42:01.450Z,35.28
2019-04-30T04:44:34.195Z,32.73
2019-04-30T04:47:03.689Z,35.00
2019-04-30T04:49:33.206Z,35.10
2019-04-30T04:52:02.773Z,33.65
2019-04-30T04:54:54.824Z,37.08
2019-04-30T04:57:24.350Z,42.17
2019-04-30T04:59:53.957Z,36.60
2019-04-30T05:02:35.854Z,31.85
2019-04-30T05:05:05.590Z,37.40
2019-04-30T05:07:35.088Z,36.48
2019-04-30T05:10:05.046Z,36.88
2019-04-30T05:12:37.185Z,32.88
2019-04-30T05:15:05.986Z,43.58
2019-04-30T05:17:35.522Z,31.90
2019-04-30T05:20:05.393Z,40.88
2019-04-30T05:22:34.924Z,38.73
2019-04-30T05:25:04.729Z,41.15
2019-04-30T05:27:34.443Z,43.50
2019-04-30T05:30:04.146Z,31.70
2019-04-30T05:32:33.722Z,30.40
2019-04-30T05:35:03.892Z,30.00
2019-04-30T05:37:33.583Z,38.20
2019-04-30T05:40:03.165Z,26.20
2019-04-30T05:42:32.752Z,32.63
2019-04-30T05:45:02.336Z,25.32
2019-04-30T05:47:31.906Z,30.05
2019-04-30T05:50:01.644Z,32.23
2019-04-30T05:52:31.736Z,34.30
2019-04-30T05:55:01.330Z,44.90
2019-04-30T05:57:30.822Z,26.45
2019-04-30T06:00:00.464Z,28.02
2019-04-30T06:02:34.103Z,32.80
2019-04-30T06:05:02.646Z,30.27
2019-04-30T06:07:32.212Z,25.45
2019-04-30T06:10:24.900Z,32.23
2019-04-30T06:13:01.455Z,28.23
2019-04-30T06:15:39.097Z,31.07
2019-04-30T06:18:13.587Z,27.98
2019-04-30T06:20:40.483Z,30.85
2019-04-30T06:23:09.987Z,51.70
2019-04-30T06:25:55.597Z,29.75
2019-04-30T06:28:13.273Z,27.40
2019-04-30T06:30:43.015Z,33.73
2019-04-30T06:33:12.616Z,30.35
2019-04-30T06:35:42.889Z,26.00
2019-04-30T06:38:12.426Z,27.10
2019-04-30T06:40:42.119Z,27.90
2019-04-30T06:43:11.912Z,28.32
2019-04-30T06:45:41.461Z,28.27
2019-04-30T06:48:12.747Z,30.12
2019-04-30T06:50:42.276Z,31.17
2019-04-30T06:53:11.971Z,25.17
2019-04-30T06:55:41.549Z,31.20
2019-04-30T06:58:15.066Z,33.38
2019-04-30T07:00:42.264Z,27.13
2019-04-30T07:03:13.211Z,35.20
2019-04-30T07:05:42.748Z,28.60
2019-04-30T07:08:54.666Z,41.37
2019-04-30T07:11:30.345Z,40.15
2019-04-30T07:14:00.130Z,33.85
2019-04-30T07:16:30.377Z,38.45
2019-04-30T07:18:59.936Z,40.17
2019-04-30T07:21:31.700Z,36.73
2019-04-30T07:24:00.683Z,38.67
2019-04-30T07:26:30.467Z,43.38
2019-04-30T07:29:02.612Z,43.20
2019-04-30T07:31:31.585Z,39.78
2019-04-30T07:34:02.049Z,46.95
2019-04-30T07:36:45.161Z,32.08
2019-04-30T07:39:03.421Z,38.90
2019-04-30T07:41:32.955Z,36.85
2019-04-30T07:44:02.923Z,38.73
2019-04-30T07:46:35.182Z,38.98
2019-04-30T07:49:03.734Z,34.83
2019-04-30T07:51:37.993Z,37.85
2019-04-30T07:54:05.166Z,38.00
2019-04-30T07:56:38.033Z,44.00
2019-04-30T07:59:05.975Z,40.05
2019-04-30T08:01:35.629Z,46.13
2019-04-30T08:04:36.200Z,38.58
2019-04-30T08:07:07.065Z,40.38
2019-04-30T08:09:39.726Z,39.15
2019-04-30T08:12:09.251Z,37.65
2019-04-30T08:14:39.112Z,42.78
2019-04-30T08:17:09.012Z,43.17
2019-04-30T08:19:42.792Z,42.65
2019-04-30T08:22:12.310Z,44.20
2019-04-30T08:24:41.833Z,42.55
2019-04-30T08:27:11.335Z,43.40
2019-04-30T08:29:40.827Z,40.52
2019-04-30T08:32:10.311Z,41.83
2019-04-30T08:34:40.402Z,43.15
2019-04-30T08:37:17.281Z,40.75
2019-04-30T08:39:41.476Z,34.08
2019-04-30T08:42:11.124Z,42.83
2019-04-30T08:44:40.695Z,42.27
2019-04-30T08:47:10.256Z,41.98
2019-04-30T08:49:40.670Z,47.23
2019-04-30T08:52:11.137Z,43.68
2019-04-30T08:54:41.050Z,46.73
2019-04-30T08:57:10.748Z,41.23
2019-04-30T08:59:40.420Z,41.02
2019-04-30T09:02:15.468Z,37.85
2019-04-30T09:04:41.176Z,41.08
2019-04-30T09:07:10.866Z,38.67
2019-04-30T09:09:40.465Z,35.28
2019-04-30T09:12:10.156Z,37.80
2019-04-30T09:14:40.694Z,35.35
2019-04-30T09:17:10.729Z,44.83
2019-04-30T09:19:40.243Z,35.55
2019-04-30T09:22:14.967Z,33.67
2019-04-30T09:24:41.842Z,35.85
2019-04-30T09:27:11.441Z,37.28
2019-04-30T09:29:41.173Z,37.83
2019-04-30T09:32:10.728Z,36.35
2019-04-30T09:34:40.491Z,34.13
2019-04-30T09:37:10.165Z,34.88
2019-04-30T09:39:39.968Z,32.65
2019-04-30T09:42:10.032Z,29.30
2019-04-30T09:44:39.799Z,34.63
2019-04-30T09:50:00.358Z,34.65
2019-04-30T09:52:30.859Z,32.42
2019-04-30T09:55:01.807Z,32.60
2019-04-30T09:57:34.902Z,30.40
2019-04-30T10:00:05.024Z,32.83
2019-04-30T10:02:34.542Z,29.70
2019-04-30T10:05:04.799Z,31.37
2019-04-30T10:07:34.744Z,29.70
2019-04-30T10:10:04.707Z,30.08
2019-04-30T10:12:34.195Z,32.70
2019-04-30T10:15:04.057Z,35.33
2019-04-30T10:17:37.416Z,49.07
2019-04-30T10:20:09.131Z,35.23
2019-04-30T10:22:40.114Z,30.88
2019-04-30T10:25:11.417Z,26.83
2019-04-30T10:27:40.947Z,30.88
2019-04-30T10:30:11.377Z,35.20
2019-04-30T10:32:41.149Z,36.80
2019-04-30T10:35:10.601Z,29.20
2019-04-30T10:37:40.158Z,31.40
2019-04-30T10:40:10.410Z,28.03
2019-04-30T10:42:40.134Z,33.87
2019-04-30T10:45:10.210Z,27.03
2019-04-30T10:47:39.689Z,27.87
2019-04-30T10:50:10.144Z,27.23
2019-04-30T10:52:39.605Z,21.47
2019-04-30T10:55:09.533Z,22.63
2019-04-30T10:57:39.716Z,21.83
2019-04-30T11:00:14.473Z,25.90
2019-04-30T11:02:44.007Z,25.00
2019-04-30T11:05:14.304Z,29.70
2019-04-30T11:07:43.852Z,23.77
2019-04-30T11:10:13.831Z,23.50
2019-04-30T11:12:43.403Z,21.33
2019-04-30T11:15:16.742Z,23.00
2019-04-30T11:17:46.553Z,27.63
2019-04-30T11:20:16.424Z,22.93
2019-04-30T11:22:46.360Z,29.57
2019-04-30T11:25:16.391Z,23.70
2019-04-30T11:27:46.468Z,18.13
2019-04-30T11:30:21.219Z,22.67
2019-04-30T11:32:48.256Z,19.13
2019-04-30T11:35:18.481Z,19.93
2019-04-30T11:37:49.153Z,16.87
2019-04-30T11:40:34.028Z,19.00
2019-04-30T11:42:57.857Z,17.63
2019-04-30T11:46:04.809Z,20.63
2019-04-30T11:48:34.267Z,20.67
2019-04-30T11:51:03.735Z,25.87
2019-04-30T11:53:33.232Z,17.23
2019-04-30T11:56:02.719Z,18.70
2019-04-30T11:58:32.218Z,17.23
2019-04-30T12:01:02.145Z,17.00
2019-04-30T12:03:32.092Z,14.50
2019-04-30T12:06:01.744Z,13.50
2019-04-30T12:08:34.792Z,14.53
2019-04-30T12:11:15.384Z,12.00
2019-04-30T12:13:44.967Z,14.10
2019-04-30T12:16:14.417Z,17.10
2019-04-30T12:18:43.868Z,16.40
2019-04-30T12:21:13.458Z,11.80
2019-04-30T12:23:43.532Z,20.80
2019-04-30T12:26:13.339Z,17.40
2019-04-30T12:28:42.894Z,20.40
2019-04-30T12:31:12.452Z,21.70
2019-04-30T12:33:42.128Z,17.67
2019-04-30T12:36:11.624Z,17.37
2019-04-30T12:38:41.157Z,15.40
2019-04-30T12:41:10.649Z,15.23
2019-04-30T12:43:40.250Z,20.73
2019-04-30T12:46:09.757Z,17.80
2019-04-30T12:48:53.948Z,25.13
2019-04-30T12:52:00.860Z,15.33
2019-04-30T12:54:47.178Z,17.23
2019-04-30T12:57:29.492Z,17.40
2019-04-30T13:00:00.513Z,18.30
2019-04-30T13:02:30.316Z,18.77
2019-04-30T13:05:00.481Z,13.40
2019-04-30T13:07:31.150Z,18.50
2019-04-30T13:10:02.244Z,14.30
2019-04-30T13:12:32.935Z,22.30
2019-04-30T13:15:03.202Z,26.30
2019-04-30T13:17:34.239Z,19.10
2019-04-30T13:20:03.911Z,17.50
2019-04-30T13:22:33.554Z,18.57
2019-04-30T13:25:03.246Z,17.20
2019-04-30T13:27:34.983Z,15.50
2019-04-30T13:30:14.597Z,19.13
2019-04-30T13:32:53.611Z,20.50
2019-04-30T13:35:23.135Z,14.20
2019-04-30T13:38:01.091Z,19.77
2019-04-30T13:40:48.991Z,21.97
2019-04-30T13:43:20.671Z,21.53
2019-04-30T13:45:51.843Z,15.93
2019-04-30T13:48:21.470Z,16.53
2019-04-30T13:50:51.001Z,18.93
2019-04-30T13:53:20.533Z,17.57
2019-04-30T13:55:49.967Z,18.20
2019-04-30T13:58:19.467Z,18.63
2019-04-30T14:00:49.430Z,18.40
2019-04-30T14:03:26.122Z,19.43
2019-04-30T14:05:55.715Z,23.90
2019-04-30T14:08:31.009Z,22.93
2019-04-30T14:11:00.596Z,18.17
2019-04-30T14:13:30.498Z,19.20
2019-04-30T14:16:00.086Z,19.57
2019-04-30T14:18:33.810Z,21.40
2019-04-30T14:21:01.098Z,18.40
2019-04-30T14:23:30.708Z,21.87
2019-04-30T14:26:01.167Z,25.60
2019-04-30T14:28:30.848Z,23.03
2019-04-30T14:31:00.743Z,19.47
2019-04-30T14:33:30.297Z,26.67
2019-04-30T14:36:00.886Z,22.80
2019-04-30T14:38:30.423Z,24.17
2019-04-30T14:41:01.073Z,22.33
2019-04-30T14:43:42.942Z,21.30
2019-04-30T14:46:33.877Z,23.13
2019-04-30T14:49:22.391Z,27.67
2019-04-30T14:51:52.465Z,24.13
2019-04-30T14:54:28.675Z,19.20
2019-04-30T14:57:06.451Z,26.80
2019-04-30T14:59:53.532Z,24.70
2019-04-30T15:02:29.645Z,25.67
2019-04-30T15:04:59.223Z,25.60
2019-04-30T15:07:29.575Z,21.27
2019-04-30T15:09:59.270Z,26.70
2019-04-30T15:12:28.950Z,23.10
2019-04-30T15:14:59.215Z,22.77
2019-04-30T15:17:29.169Z,20.47
2019-04-30T15:19:58.927Z,25.97
2019-04-30T15:22:29.029Z,24.30
2019-04-30T15:24:59.234Z,21.13
2019-04-30T15:27:36.151Z,24.17
2019-04-30T15:31:19.613Z,18.77
2019-04-30T15:37:50.315Z,22.07
2019-04-30T15:41:06.410Z,23.13
2019-04-30T15:50:45.027Z,22.37
2019-04-30T16:00:35.389Z,20.17
2019-04-30T16:08:42.193Z,21.30
2019-04-30T16:11:19.480Z,22.57
2019-04-30T16:14:37.254Z,25.80
2019-04-30T16:17:44.180Z,21.63
2019-04-30T16:20:14.218Z,18.03
2019-04-30T16:22:43.854Z,18.33
2019-04-30T16:25:31.094Z,19.37
2019-04-30T16:28:58.618Z,23.30
2019-04-30T16:35:14.191Z,24.27
2019-04-30T16:37:49.718Z,20.03
2019-04-30T16:40:19.526Z,17.00
2019-04-30T16:42:49.120Z,16.73
2019-04-30T16:45:19.460Z,20.80
2019-04-30T16:47:55.578Z,17.70
2019-04-30T16:50:25.081Z,19.30
2019-04-30T16:53:28.075Z,17.80
2019-04-30T16:59:42.741Z,19.10
2019-04-30T17:02:10.552Z,21.43
2019-04-30T17:05:26.539Z,17.80
2019-04-30T17:08:33.739Z,18.27
2019-04-30T17:11:49.091Z,18.27
2019-04-30T17:14:21.384Z,17.77
2019-04-30T17:16:55.903Z,23.43
2019-04-30T17:19:29.223Z,21.83
2019-04-30T17:22:06.912Z,19.50
2019-04-30T17:24:53.948Z,17.77
2019-04-30T17:27:26.320Z,16.43
2019-04-30T17:29:58.353Z,19.77
2019-04-30T17:32:28.576Z,21.37
2019-04-30T17:35:05.230Z,20.47
2019-04-30T17:37:36.183Z,15.77
2019-04-30T17:40:09.234Z,15.97
2019-04-30T17:42:38.652Z,16.93
2019-04-30T17:45:09.885Z,17.97
2019-04-30T17:47:48.287Z,18.90
2019-04-30T17:50:18.715Z,21.40
2019-04-30T17:52:48.468Z,14.77
2019-04-30T17:55:19.492Z,20.93
2019-04-30T17:57:49.294Z,19.37
2019-04-30T18:00:22.155Z,18.47
2019-04-30T18:02:50.315Z,26.73
2019-04-30T18:05:19.932Z,17.83
2019-04-30T18:07:49.882Z,18.30
2019-04-30T18:10:19.945Z,21.10
2019-04-30T18:12:49.533Z,21.33
2019-04-30T18:15:21.594Z,18.27
2019-04-30T18:18:15.324Z,20.00
2019-04-30T18:20:56.819Z,17.10
2019-04-30T18:23:38.998Z,22.60
2019-04-30T18:26:11.587Z,20.07
2019-04-30T18:28:41.273Z,17.80
2019-04-30T18:31:10.820Z,17.87
2019-04-30T18:33:40.471Z,17.63
2019-04-30T18:36:10.420Z,16.20
2019-04-30T18:38:40.205Z,21.10
2019-04-30T18:41:09.843Z,28.13
2019-04-30T18:43:48.662Z,19.03
2019-04-30T18:47:14.450Z,22.70
2019-04-30T18:49:46.261Z,18.27
2019-04-30T18:52:18.799Z,17.73
2019-04-30T18:54:49.534Z,19.47
2019-04-30T18:57:20.041Z,21.73
2019-04-30T19:00:03.703Z,22.20
2019-04-30T19:02:51.057Z,19.47
2019-04-30T19:05:30.968Z,19.33
2019-04-30T19:08:09.804Z,23.77
2019-04-30T19:10:51.541Z,22.13
2019-04-30T19:13:33.308Z,20.97
2019-04-30T19:16:25.715Z,22.00
2019-04-30T19:19:04.830Z,28.52
2019-04-30T19:21:35.450Z,19.33
2019-04-30T19:24:05.088Z,16.63
2019-04-30T19:26:38.871Z,19.03
2019-04-30T19:29:08.426Z,19.30
2019-04-30T19:31:39.467Z,22.45
2019-04-30T19:34:09.766Z,20.20
2019-04-30T19:36:40.741Z,18.37
2019-04-30T19:39:11.873Z,22.40
2019-04-30T19:41:41.373Z,25.53
2019-04-30T19:44:11.002Z,19.40
2019-04-30T19:46:40.567Z,27.70
2019-04-30T19:49:10.265Z,21.02
2019-04-30T19:51:40.332Z,18.85
2019-04-30T19:54:11.375Z,24.27
2019-04-30T19:56:41.416Z,24.87
2019-04-30T19:59:10.927Z,20.85
2019-04-30T20:01:40.506Z,27.30
2019-04-30T20:04:13.382Z,21.12
2019-04-30T20:06:42.860Z,23.55
2019-04-30T20:09:12.525Z,24.77
2019-04-30T20:11:42.669Z,25.92
2019-04-30T20:14:12.398Z,29.40
2019-04-30T20:16:42.034Z,26.52
2019-04-30T20:19:11.564Z,35.25
2019-04-30T20:21:50.419Z,26.97
2019-04-30T20:24:12.726Z,26.77
2019-04-30T20:26:42.299Z,27.13
2019-04-30T20:29:11.944Z,33.10
2019-04-30T20:31:41.521Z,27.80
2019-04-30T20:34:11.551Z,27.85
2019-04-30T20:36:41.138Z,28.50
2019-04-30T20:39:29.355Z,25.30
2019-04-30T20:42:08.819Z,27.77
2019-04-30T20:44:41.407Z,28.00
2019-04-30T20:47:13.149Z,32.35
2019-04-30T20:49:42.727Z,31.30
2019-04-30T20:52:14.489Z,29.00
2019-04-30T20:54:44.279Z,31.87
2019-04-30T20:57:13.825Z,30.85
2019-04-30T20:59:43.538Z,31.12
2019-04-30T21:02:12.990Z,33.30
2019-04-30T21:04:42.636Z,28.85
2019-04-30T21:07:12.457Z,32.55
2019-04-30T21:09:41.979Z,37.95
2019-04-30T21:12:11.528Z,35.50
2019-04-30T21:14:40.968Z,32.80
2019-04-30T21:17:10.885Z,38.30
2019-04-30T21:19:46.248Z,41.20
2019-04-30T21:22:15.910Z,42.85
2019-04-30T21:24:45.522Z,35.60
2019-04-30T21:27:15.100Z,39.35
2019-04-30T21:29:44.789Z,39.30
2019-04-30T21:32:21.907Z,45.30
2019-04-30T21:35:13.267Z,40.45
2019-04-30T21:37:43.515Z,36.58
2019-04-30T21:40:13.363Z,38.83
2019-04-30T21:42:42.930Z,38.85
2019-04-30T21:45:16.172Z,38.90
2019-04-30T21:47:55.787Z,48.13
2019-04-30T21:50:20.569Z,38.78
2019-04-30T21:52:50.107Z,40.83
2019-04-30T21:55:26.918Z,41.88
2019-04-30T21:57:56.638Z,37.48
2019-04-30T22:01:04.799Z,45.52
2019-04-30T22:03:34.419Z,41.85
2019-04-30T22:06:04.386Z,46.95
2019-04-30T22:08:40.758Z,41.75
2019-04-30T22:11:10.473Z,43.40
2019-04-30T22:13:42.981Z,40.15
2019-04-30T22:16:11.286Z,40.08
2019-04-30T22:18:41.219Z,45.25
2019-04-30T22:21:10.825Z,42.20
2019-04-30T22:23:40.649Z,38.33
2019-04-30T22:26:10.816Z,44.70
2019-04-30T22:28:41.239Z,43.25
2019-04-30T22:31:11.066Z,38.95
2019-04-30T22:33:40.787Z,36.83
2019-04-30T22:36:29.010Z,40.50
2019-04-30T22:39:16.525Z,44.10
2019-04-30T22:41:46.066Z,42.35
2019-04-30T22:44:15.667Z,42.08
2019-04-30T22:46:45.268Z,43.13
2019-04-30T22:49:14.850Z,45.40
2019-04-30T22:51:44.488Z,49.63
2019-04-30T22:54:13.994Z,43.30
2019-04-30T22:56:43.602Z,51.60
2019-04-30T22:59:13.191Z,47.55
2019-04-30T23:01:56.030Z,46.37
2019-04-30T23:04:38.574Z,52.88
2019-04-30T23:07:08.237Z,42.53
2019-04-30T23:09:37.820Z,48.02
2019-04-30T23:12:07.428Z,48.17
2019-04-30T23:14:36.977Z,51.08
2019-04-30T23:17:06.667Z,50.78
2019-04-30T23:19:36.339Z,45.48
2019-04-30T23:22:05.873Z,48.98
2019-04-30T23:24:35.388Z,55.67
2019-04-30T23:27:04.927Z,54.18
2019-04-30T23:29:34.505Z,54.60
2019-04-30T23:32:04.035Z,54.35
2019-04-30T23:34:33.635Z,53.02
2019-04-30T23:37:03.239Z,57.73
2019-04-30T23:39:36.072Z,51.35
2019-04-30T23:42:05.692Z,56.33
2019-04-30T23:44:36.470Z,49.77
2019-04-30T23:47:05.955Z,44.95
2019-04-30T23:49:35.488Z,54.03
2019-04-30T23:52:05.042Z,56.37
2019-04-30T23:54:34.664Z,47.55
2019-04-30T23:57:04.208Z,57.95
2019-04-30T23:59:33.711Z,50.67
